Time;durP1;ratioP1;P1;durP2;ratioP2;P2;SDS_P1;SDS_P2;PMS_P1;PMS_P2;Temp;Humidity;BMP_temperature;BMP_pressure;BME280_temperature;BME280_humidity;BME280_pressure;Samples;Min_cycle;Max_cycle;Signal;HPM_P1;HPM_P2
2022/12/04 00:01:06;;;;;;;5.50;3.40;;;;;;;-1.29;76.96;100564.36;105869;1284;74594;-23
2022/12/04 00:03:33;;;;;;;5.70;3.30;;;;;;;-1.41;77.19;100562.26;105551;1298;61689;-23
2022/12/04 00:06:04;;;;;;;14.20;3.60;;;;;;;-1.65;77.85;100561.40;105846;1290;62478;-23
2022/12/04 00:08:31;;;;;;;7.70;4.10;;;;;;;-1.82;78.84;100561.52;105590;1296;74946;-23
2022/12/04 00:10:58;;;;;;;4.80;2.80;;;;;;;-1.63;78.85;100564.96;105678;1288;75216;-23
2022/12/04 00:13:25;;;;;;;6.00;3.60;;;;;;;-1.24;77.53;100565.86;105636;1296;73708;-24
2022/12/04 00:15:52;;;;;;;6.90;3.60;;;;;;;-1.20;76.86;100568.55;105681;1297;60650;-24
2022/12/04 00:18:19;;;;;;;7.90;4.60;;;;;;;-1.34;77.00;100572.92;105734;1294;61072;-23
2022/12/04 00:20:47;;;;;;;4.50;3.40;;;;;;;-1.50;77.37;100579.69;105635;1298;75964;-23
2022/12/04 00:23:14;;;;;;;6.90;4.50;;;;;;;-1.68;77.50;100572.32;105642;1290;75396;-24
2022/12/04 00:25:41;;;;;;;6.70;3.90;;;;;;;-1.83;78.70;100577.86;105709;1295;73503;-24
2022/12/04 00:28:08;;;;;;;6.00;3.40;;;;;;;-1.46;77.95;100578.64;105700;1295;60519;-23
2022/12/04 00:30:40;;;;;;;5.70;3.90;;;;;;;-1.10;76.70;100578.35;105721;1294;61273;-23
2022/12/04 00:33:06;;;;;;;8.60;4.20;;;;;;;-1.12;75.86;100575.64;105565;1298;75787;-24
2022/12/04 00:35:33;;;;;;;8.40;3.60;;;;;;;-1.27;76.48;100576.96;105705;1294;75840;-23
2022/12/04 00:38:00;;;;;;;7.10;3.90;;;;;;;-1.45;77.01;100577.63;105623;1295;74737;-24
2022/12/04 00:40:27;;;;;;;5.30;2.90;;;;;;;-1.63;77.56;100582.16;105596;1292;61675;-23
2022/12/04 00:42:54;;;;;;;6.60;3.80;;;;;;;-1.76;78.17;100584.12;105587;1287;62565;-23
2022/12/04 00:45:21;;;;;;;7.70;4.50;;;;;;;-1.45;78.05;100570.29;105669;1295;73896;-23
2022/12/04 00:47:48;;;;;;;3.80;2.70;;;;;;;-1.08;76.71;100575.42;105668;1290;76401;-23
2022/12/04 00:50:15;;;;;;;5.90;4.40;;;;;;;-1.00;76.29;100576.05;105790;1295;74456;-23
2022/12/04 00:52:42;;;;;;;7.50;4.00;;;;;;;-1.16;76.25;100568.86;105681;1295;60578;-23
2022/12/04 00:55:09;;;;;;;32.40;3.60;;;;;;;-1.36;76.84;100567.66;105678;1295;61083;-23
2022/12/04 00:57:36;;;;;;;9.70;3.00;;;;;;;-1.56;77.84;100567.81;105585;1297;76404;-23
2022/12/04 01:00:05;;;;;;;7.40;4.40;;;;;;;-1.73;78.42;100572.69;105563;1298;75037;-23
2022/12/04 01:02:31;;;;;;;9.50;5.20;;;;;;;-1.57;78.91;100567.30;105522;1298;74842;-23
2022/12/04 01:05:00;;;;;;;8.80;5.00;;;;;;;-1.14;77.56;100567.81;105670;1295;61630;-24
2022/12/04 01:07:27;;;;;;;10.50;4.60;;;;;;;-1.12;77.03;100566.44;105536;1297;62521;-23
2022/12/04 01:09:54;;;;;;;9.90;6.00;;;;;;;-1.27;77.32;100566.39;105719;1287;76201;-23
2022/12/04 01:12:21;;;;;;;7.30;5.20;;;;;;;-1.48;77.65;100571.17;105764;1295;75385;-23
2022/12/04 01:14:48;;;;;;;9.40;4.80;;;;;;;-1.67;78.49;100573.50;105687;1295;74623;-23
2022/12/04 01:17:15;;;;;;;8.10;5.50;;;;;;;-1.78;79.25;100570.18;105674;1295;63387;-23
2022/12/04 01:19:42;;;;;;;11.50;5.50;;;;;;;-1.43;78.72;100571.29;105700;1287;62147;-23
2022/12/04 01:22:09;;;;;;;9.50;5.70;;;;;;;-1.23;77.73;100567.90;105699;1293;74704;-24
2022/12/04 01:24:36;;;;;;;9.90;5.50;;;;;;;-1.36;77.78;100571.25;105719;1295;76341;-24
2022/12/04 01:27:03;;;;;;;8.10;4.60;;;;;;;-1.51;78.08;100569.14;105591;1298;73911;-23
2022/12/04 01:29:30;;;;;;;13.00;4.60;;;;;;;-1.71;78.66;100567.05;105683;1301;60624;-24
2022/12/04 01:31:57;;;;;;;5.50;4.10;;;;;;;-1.88;79.72;100565.98;105701;1295;61076;-25
2022/12/04 01:34:24;;;;;;;7.50;3.10;;;;;;;-1.58;79.81;100564.93;105780;1294;76126;-23
2022/12/04 01:36:51;;;;;;;6.90;4.30;;;;;;;-1.17;78.34;100563.24;105690;1288;76463;-23
2022/12/04 01:39:18;;;;;;;11.10;5.40;;;;;;;-1.16;77.70;100559.99;105673;1287;73089;-23
2022/12/04 01:41:45;;;;;;;7.90;5.00;;;;;;;-1.40;77.97;100557.30;105668;1298;60750;-23
2022/12/04 01:44:20;;;;;;;11.20;4.80;;;;;;;-1.60;78.41;100558.47;105726;1296;62752;-23
2022/12/04 01:46:58;;;;;;;9.60;5.00;;;;;;;-1.81;79.25;100558.45;105406;1300;75963;-23
2022/12/04 01:49:43;;;;;;;8.30;4.20;;;;;;;-1.69;80.04;100564.14;105635;1296;76297;-23
2022/12/04 01:52:16;;;;;;;11.90;5.50;;;;;;;-1.19;77.94;100560.70;105428;1294;74919;-23
2022/12/04 01:54:45;;;;;;;7.60;3.60;;;;;;;-1.20;77.67;100562.25;105556;1298;62092;-23
2022/12/04 01:57:13;;;;;;;8.60;4.80;;;;;;;-1.33;77.71;100561.67;105508;1300;60154;-24
2022/12/04 01:59:43;;;;;;;12.70;4.60;;;;;;;-1.54;78.17;100563.20;105602;1298;75979;-23
2022/12/04 02:02:15;;;;;;;6.70;4.00;;;;;;;-1.74;79.06;100569.63;105542;1293;75442;-23
2022/12/04 02:04:42;;;;;;;8.70;4.90;;;;;;;-1.74;79.85;100573.55;105531;1289;74760;-23
2022/12/04 02:07:09;;;;;;;5.90;3.10;;;;;;;-1.25;78.72;100566.89;105568;1298;62126;-23
2022/12/04 02:09:38;;;;;;;11.50;5.60;;;;;;;-1.15;77.37;100561.36;105581;1291;61497;-24
2022/12/04 02:12:07;;;;;;;5.40;3.50;;;;;;;-1.24;77.24;100568.59;105588;1290;74585;-23
2022/12/04 02:15:02;;;;;;;9.70;5.00;;;;;;;-1.45;77.74;100567.56;105604;1295;76337;-23
2022/12/04 02:17:39;;;;;;;7.90;4.90;;;;;;;-1.70;78.53;100571.48;105556;1287;73629;-23
2022/12/04 02:20:13;;;;;;;10.10;6.20;;;;;;;-1.83;78.91;100569.35;105569;1298;63147;-24
2022/12/04 02:23:06;;;;;;;10.60;5.10;;;;;;;-1.41;78.59;100569.06;105673;1297;62292;-24
2022/12/04 02:25:46;;;;;;;7.40;3.80;;;;;;;-1.24;77.54;100568.77;105555;1298;76108;-23
2022/12/04 02:28:25;;;;;;;13.90;6.00;;;;;;;-1.34;77.17;100565.43;105563;1290;76331;-24
2022/12/04 02:30:54;;;;;;;12.80;5.70;;;;;;;-1.58;77.75;100568.34;105561;1298;74829;-23
2022/12/04 02:33:56;;;;;;;6.70;4.30;;;;;;;-1.78;78.46;100571.02;105350;1300;61807;-23
2022/12/04 02:36:24;;;;;;;7.00;4.00;;;;;;;-1.93;78.90;100573.48;105572;1296;61372;-23
2022/12/04 02:38:55;;;;;;;7.50;3.70;;;;;;;-1.57;78.39;100574.64;105565;1297;75979;-24
2022/12/04 02:41:36;;;;;;;9.30;5.10;;;;;;;-1.33;77.23;100575.15;105661;1291;76275;-23
2022/12/04 02:44:12;;;;;;;7.00;3.90;;;;;;;-1.42;76.56;100574.86;105409;1298;74743;-23
2022/12/04 02:46:45;;;;;;;10.10;6.10;;;;;;;-1.61;76.97;100575.51;105520;1304;60601;-23
2022/12/04 02:49:17;;;;;;;10.60;5.50;;;;;;;-1.84;77.68;100571.91;105535;1291;62535;-24
2022/12/04 02:51:47;;;;;;;;;;;;;;;-2.01;78.36;100574.05;105584;1297;75963;-23
2022/12/04 02:54:25;;;;;;;5.30;3.20;;;;;;;-1.71;78.00;100572.85;105431;1296;76338;-23
2022/12/04 02:56:55;;;;;;;7.50;4.60;;;;;;;-1.31;76.07;100566.60;105421;1295;74687;-23
2022/12/04 02:59:44;;;;;;;4.30;3.20;;;;;;;-1.27;75.74;100572.19;105465;1293;61884;-23
2022/12/04 03:02:26;;;;;;;5.00;3.50;;;;;;;-1.42;76.22;100574.02;105530;1297;62144;-24
2022/12/04 03:04:56;;;;;;;5.50;3.70;;;;;;;-1.64;76.25;100563.43;105570;1299;75930;-24
2022/12/04 03:07:45;;;;;;;5.40;3.20;;;;;;;-1.84;76.99;100574.30;105496;1300;76461;-24
2022/12/04 03:10:19;;;;;;;7.90;4.80;;;;;;;-1.95;77.50;100574.17;105521;1293;74532;-24
2022/12/04 03:12:53;;;;;;;6.80;4.30;;;;;;;-1.51;76.99;100565.55;105350;1300;61566;-24
2022/12/04 03:15:36;;;;;;;6.20;3.60;;;;;;;-1.10;74.94;100561.63;105516;1290;61436;-23
2022/12/04 03:18:17;;;;;;;5.00;3.10;;;;;;;-1.15;74.59;100558.95;105529;1297;75003;-23
2022/12/04 03:20:49;;;;;;;6.60;3.30;;;;;;;-1.33;74.64;100559.80;105359;1295;76459;-23
2022/12/04 03:23:21;;;;;;;5.60;3.00;;;;;;;-1.56;75.41;100559.13;105538;1295;74758;-23
2022/12/04 03:26:25;;;;;;;7.10;3.70;;;;;;;-1.75;75.91;100557.03;105497;1299;60289;-23
2022/12/04 03:29:18;;;;;;;10.90;4.70;;;;;;;-1.95;76.58;100559.03;105300;1293;62426;-23
2022/12/04 03:32:08;;;;;;;6.10;3.20;;;;;;;-1.52;76.37;100556.54;105585;1298;75923;-23
2022/12/04 03:35:15;;;;;;;11.00;5.50;;;;;;;-1.24;74.72;100561.26;105541;1292;76193;-24
2022/12/04 03:46:22;;;;;;;3.50;2.80;;;;;;;-1.94;76.41;100555.29;99369;1323;600049;-24
2022/12/04 03:48:51;;;;;;;6.90;3.40;;;;;;;-2.00;77.17;100551.91;101047;1312;62665;-24
2022/12/04 03:51:21;;;;;;;8.10;4.00;;;;;;;-1.51;76.33;100556.70;101304;1315;61697;-24
2022/12/04 03:53:54;;;;;;;11.70;5.80;;;;;;;-1.29;75.18;100559.08;101056;1312;73436;-24
2022/12/04 03:56:26;;;;;;;10.70;5.00;;;;;;;-1.44;75.25;100558.88;101051;1312;76815;-24
2022/12/04 03:58:58;;;;;;;7.10;4.30;;;;;;;-1.73;75.50;100562.48;100277;1298;1195889;-24
2022/12/04 04:01:28;;;;;;;4.90;3.10;;;;;;;-1.96;76.41;100561.75;101172;1307;61282;-24
2022/12/04 04:03:56;;;;;;;4.40;3.30;;;;;;;-2.16;77.22;100561.86;101337;1303;61811;-24
2022/12/04 04:06:31;;;;;;;8.20;4.20;;;;;;;-2.00;77.51;100564.83;101339;1293;73487;-24
2022/12/04 04:09:01;;;;;;;11.10;4.30;;;;;;;-1.55;76.24;100559.97;101292;1300;75760;-24
2022/12/04 04:11:32;;;;;;;8.50;4.20;;;;;;;-1.49;75.30;100554.64;101259;1313;75215;-24
2022/12/04 04:26:10;;;;;;;4.30;2.90;;;;;;;-1.80;76.74;100568.30;101317;1303;73971;-24
2022/12/04 04:28:39;;;;;;;12.00;7.20;;;;;;;-1.64;75.91;100566.52;101330;1305;61521;-24
2022/12/04 04:31:28;;;;;;;5.90;3.50;;;;;;;-1.75;75.19;100568.95;101269;1307;63041;-24
2022/12/04 04:34:14;;;;;;;9.40;6.00;;;;;;;-2.00;75.81;100576.94;101871;1302;73587;-24
2022/12/04 04:36:44;;;;;;;9.30;4.80;;;;;;;-2.25;76.67;100576.36;102100;1301;75549;-24
2022/12/04 04:39:20;;;;;;;5.90;4.50;;;;;;;-2.43;77.50;100577.96;101905;1305;73873;-24
2022/12/04 04:42:20;;;;;;;7.50;4.20;;;;;;;-2.10;77.09;100577.15;101886;1299;62016;-24
2022/12/04 04:44:57;;;;;;;7.00;3.80;;;;;;;-1.73;75.91;100573.54;101857;1304;61561;-24
2022/12/04 04:47:46;;;;;;;5.90;3.90;;;;;;;-1.81;75.66;100574.61;101900;1305;73960;-25
2022/12/04 04:50:14;;;;;;;8.60;4.90;;;;;;;-2.01;75.72;100573.52;101947;1304;76772;-25
2022/12/04 04:52:43;;;;;;;7.60;4.50;;;;;;;-2.24;76.46;100576.87;101908;1304;75257;-25
2022/12/04 04:55:10;;;;;;;8.70;5.40;;;;;;;-2.45;77.40;100573.21;101902;1308;61894;-25
2022/12/04 04:57:37;;;;;;;4.80;3.60;;;;;;;-2.35;77.61;100569.27;101865;1303;61537;-25
2022/12/04 05:00:08;;;;;;;11.80;7.20;;;;;;;-1.87;76.41;100570.39;101870;1304;75514;-25
2022/12/04 05:02:35;;;;;;;10.60;5.80;;;;;;;-1.89;75.42;100568.70;101886;1298;75781;-23
2022/12/04 05:05:03;;;;;;;7.80;5.10;;;;;;;-2.06;75.65;100570.67;101828;1305;74197;-23
2022/12/04 05:07:30;;;;;;;11.20;5.50;;;;;;;-2.31;76.48;100571.29;101998;1305;61262;-23
2022/12/04 05:09:57;;;;;;;10.20;6.30;;;;;;;-2.53;77.15;100574.43;101934;1302;62625;-23
2022/12/04 05:12:24;;;;;;;9.20;4.70;;;;;;;-2.65;77.91;100569.52;101970;1302;74428;-23
2022/12/04 05:14:51;;;;;;;9.10;4.90;;;;;;;-2.29;77.55;100573.83;101860;1302;76673;-23
2022/12/04 05:17:18;;;;;;;8.00;5.70;;;;;;;-2.00;76.29;100578.46;101990;1305;75048;-23
2022/12/04 05:19:55;;;;;;;7.50;5.10;;;;;;;-2.07;75.83;100574.41;101927;1305;61218;-23
2022/12/04 05:22:31;;;;;;;6.40;4.70;;;;;;;-2.28;76.63;100575.20;102017;1298;62548;-23
2022/12/04 05:24:58;;;;;;;8.70;4.80;;;;;;;-2.52;77.10;100572.38;101646;1302;75622;-23
2022/12/04 05:27:26;;;;;;;7.60;4.90;;;;;;;-2.76;78.09;100571.77;101941;1298;75429;-23
2022/12/04 05:29:54;;;;;;;9.50;6.00;;;;;;;-2.51;78.31;100575.95;101902;1303;74350;-23
2022/12/04 05:32:23;;;;;;;10.50;6.20;;;;;;;-2.14;77.00;100575.97;102012;1298;62073;-23
2022/12/04 05:34:50;;;;;;;8.40;5.70;;;;;;;-2.22;76.49;100576.52;101897;1302;61830;-23
2022/12/04 05:37:17;;;;;;;7.40;4.00;;;;;;;-2.40;77.24;100581.54;101874;1302;75737;-23
2022/12/04 05:39:44;;;;;;;10.70;6.80;;;;;;;-2.66;77.86;100577.34;101878;1305;76468;-23
2022/12/04 05:42:12;;;;;;;9.70;5.80;;;;;;;-2.90;78.89;100578.08;101961;1301;74091;-23
2022/12/04 05:44:39;;;;;;;10.30;6.00;;;;;;;-2.79;79.54;100568.38;101964;1303;61785;-23
2022/12/04 05:47:06;;;;;;;9.00;6.00;;;;;;;-2.39;78.01;100573.87;101950;1295;61641;-23
2022/12/04 05:49:33;;;;;;;9.70;5.20;;;;;;;-2.41;78.01;100584.41;102038;1301;73567;-23
2022/12/04 05:52:01;;;;;;;9.90;6.00;;;;;;;-2.59;78.26;100581.59;101893;1302;76851;-23
2022/12/04 05:54:28;;;;;;;8.30;5.50;;;;;;;-2.80;79.21;100580.79;101844;1300;75203;-24
2022/12/04 05:56:55;;;;;;;10.20;5.90;;;;;;;-2.99;79.45;100585.73;101956;1305;61151;-23
2022/12/04 05:59:22;;;;;;;9.90;6.70;;;;;;;-2.71;79.64;100581.78;101979;1299;62618;-24
2022/12/04 06:01:49;;;;;;;6.60;5.10;;;;;;;-2.40;78.16;100591.05;101977;1302;74099;-25
2022/12/04 06:04:16;;;;;;;7.60;5.60;;;;;;;-2.43;77.71;100588.35;101962;1301;76887;-25
2022/12/04 06:06:43;;;;;;;8.50;4.80;;;;;;;-2.68;78.33;100594.02;101963;1298;74103;-25
2022/12/04 06:09:10;;;;;;;12.70;5.40;;;;;;;-2.89;78.79;100599.34;102188;1299;62067;-25
2022/12/04 06:11:38;;;;;;;9.60;6.10;;;;;;;-3.09;79.55;100599.35;102234;1301;62857;-25
2022/12/04 06:14:06;;;;;;;13.00;7.20;;;;;;;-2.81;79.56;100604.23;102144;1299;74352;-25
2022/12/04 06:16:38;;;;;;;9.70;6.10;;;;;;;-2.57;77.93;100604.70;101963;1290;76800;-25
2022/12/04 06:19:16;;;;;;;8.00;6.20;;;;;;;-2.66;77.95;100611.02;102161;1302;74936;-23
2022/12/04 06:21:44;;;;;;;10.50;5.90;;;;;;;-2.85;78.29;100615.48;102067;1301;61110;-23
2022/12/04 06:24:13;;;;;;;12.70;8.40;;;;;;;-3.02;78.56;100617.17;102222;1299;61151;-23
2022/12/04 06:26:41;;;;;;;12.60;6.70;;;;;;;-3.12;79.25;100619.39;102165;1302;74567;-24
2022/12/04 06:29:28;;;;;;;7.70;5.00;;;;;;;-2.74;77.94;100616.98;102334;1297;75743;-24
2022/12/04 06:31:55;;;;;;;8.20;5.40;;;;;;;-2.67;77.04;100619.37;102326;1299;74242;-24
2022/12/04 06:34:22;;;;;;;8.70;5.70;;;;;;;-2.83;77.06;100616.15;102301;1295;61805;-24
2022/12/04 06:36:49;;;;;;;12.80;7.70;;;;;;;-3.11;77.35;100617.86;102289;1298;62757;-24
2022/12/04 06:39:16;;;;;;;11.60;6.60;;;;;;;-3.36;78.42;100624.14;102043;1299;75587;-24
2022/12/04 06:41:46;;;;;;;6.90;4.50;;;;;;;-3.26;78.77;100620.40;102296;1299;75545;-24
2022/12/04 06:44:14;;;;;;;10.40;5.90;;;;;;;-2.89;77.42;100625.33;102385;1301;75256;-24
2022/12/04 06:46:41;;;;;;;8.70;5.60;;;;;;;-2.88;76.74;100623.11;102133;1302;61125;-24
2022/12/04 06:49:12;;;;;;;9.00;4.50;;;;;;;-3.02;77.04;100627.20;102269;1298;62600;-24
2022/12/04 06:51:39;;;;;;;11.70;7.10;;;;;;;-3.17;77.48;100629.92;102220;1300;75706;-24
2022/12/04 06:54:07;;;;;;;7.90;4.60;;;;;;;-3.37;77.81;100624.13;102314;1294;76189;-24
2022/12/04 06:56:34;;;;;;;8.90;6.00;;;;;;;-3.07;77.82;100628.73;102294;1298;75064;-24
2022/12/04 06:59:02;;;;;;;14.90;5.70;;;;;;;-2.73;76.06;100630.08;102283;1302;62040;-24
2022/12/04 07:01:31;;;;;;;11.00;5.20;;;;;;;-2.76;75.53;100629.74;102384;1294;62604;-24
2022/12/04 07:03:59;;;;;;;16.00;6.40;;;;;;;-2.89;75.85;100629.24;102214;1291;74739;-24
2022/12/04 07:06:28;;;;;;;9.40;5.60;;;;;;;-3.20;76.08;100631.79;102297;1299;74744;-24
2022/12/04 07:09:06;;;;;;;9.20;6.10;;;;;;;-3.39;76.77;100639.59;102106;1302;75015;-24
2022/12/04 07:11:33;;;;;;;8.90;4.30;;;;;;;-3.21;76.94;100638.92;101964;1304;61302;-25
2022/12/04 07:14:00;;;;;;;14.30;6.00;;;;;;;-2.77;75.65;100641.47;102028;1302;62415;-24
2022/12/04 07:16:28;;;;;;;14.80;6.00;;;;;;;-2.76;74.86;100638.58;102065;1300;75440;-24
2022/12/04 07:18:56;;;;;;;7.70;3.60;;;;;;;-2.88;74.99;100641.48;102359;1299;76746;-24
2022/12/04 07:21:25;;;;;;;20.70;8.00;;;;;;;-3.12;75.59;100636.89;102173;1295;74143;-24
2022/12/04 07:23:55;;;;;;;12.20;6.60;;;;;;;-3.35;76.22;100652.16;102060;1305;61257;-24
2022/12/04 07:26:22;;;;;;;24.40;5.00;;;;;;;-3.41;77.23;100650.11;102182;1294;62871;-24
2022/12/04 07:28:49;;;;;;;7.90;5.50;;;;;;;-2.94;76.87;100653.55;102315;1298;75375;-24
2022/12/04 07:31:18;;;;;;;14.30;5.40;;;;;;;-2.71;75.49;100652.87;102281;1302;75838;-24
2022/12/04 07:33:45;;;;;;;8.50;3.60;;;;;;;-2.81;75.22;100655.92;102137;1302;75207;-24
2022/12/04 07:36:14;;;;;;;4.60;3.80;;;;;;;-2.97;75.61;100656.77;102334;1299;62000;-24
2022/12/04 07:38:42;;;;;;;8.20;5.10;;;;;;;-3.09;76.25;100658.65;102168;1301;61528;-25
2022/12/04 07:41:09;;;;;;;8.40;4.70;;;;;;;-3.18;76.73;100659.15;102328;1298;75539;-24
2022/12/04 07:43:37;;;;;;;8.80;4.30;;;;;;;-2.95;77.04;100657.27;102168;1299;75922;-24
2022/12/04 07:46:10;;;;;;;10.30;5.40;;;;;;;-2.39;75.37;100648.21;102268;1298;75151;-24
2022/12/04 07:48:37;;;;;;;8.50;4.50;;;;;;;-2.27;74.74;100647.67;102038;1296;62127;-24
2022/12/04 07:51:21;;;;;;;7.30;5.10;;;;;;;-2.51;74.80;100657.07;102296;1302;62771;-24
2022/12/04 07:53:49;;;;;;;17.30;6.80;;;;;;;-2.82;75.65;100658.99;102030;1293;75474;-24
2022/12/04 07:56:16;;;;;;;10.30;6.20;;;;;;;-3.12;76.51;100655.58;102181;1302;74406;-25
2022/12/04 07:58:44;;;;;;;10.00;5.00;;;;;;;-3.36;77.80;100662.85;102296;1294;75080;-26
2022/12/04 08:01:13;;;;;;;6.20;4.30;;;;;;;-3.09;78.00;100667.13;102378;1297;61173;-25
2022/12/04 08:03:40;;;;;;;13.20;7.40;;;;;;;-2.68;76.78;100665.26;102149;1298;61794;-25
2022/12/04 08:06:13;;;;;;;7.40;5.00;;;;;;;-2.74;75.90;100657.11;102373;1302;76692;-26
2022/12/04 08:08:40;;;;;;;17.50;7.80;;;;;;;-2.91;76.65;100664.27;102066;1299;76705;-25
2022/12/04 08:11:09;;;;;;;5.90;4.40;;;;;;;-3.14;76.90;100667.65;102116;1294;74551;-25
2022/12/04 08:13:36;;;;;;;10.30;6.30;;;;;;;-3.24;77.63;100672.56;102187;1294;61751;-25
2022/12/04 08:16:04;;;;;;;6.70;4.40;;;;;;;-3.18;77.77;100672.05;102301;1302;61862;-25
2022/12/04 08:18:31;;;;;;;7.30;4.80;;;;;;;-2.69;77.02;100674.95;102216;1294;76069;-25
2022/12/04 08:21:10;;;;;;;9.50;6.10;;;;;;;-2.46;75.93;100675.95;102160;1299;76654;-25
2022/12/04 08:23:37;;;;;;;10.00;6.60;;;;;;;-2.59;75.51;100671.20;102053;1301;75225;-25
2022/12/04 08:26:04;;;;;;;14.50;8.20;;;;;;;-2.92;76.19;100674.62;101982;1291;61729;-25
2022/12/04 08:28:32;;;;;;;14.70;7.40;;;;;;;-3.21;77.14;100669.67;102291;1300;62546;-25
2022/12/04 08:31:18;;;;;;;9.80;6.30;;;;;;;-3.33;77.95;100673.73;102295;1297;74954;-25
2022/12/04 08:33:46;;;;;;;7.70;4.30;;;;;;;-2.85;77.38;100670.88;102246;1288;76828;-25
2022/12/04 08:36:16;;;;;;;11.60;7.20;;;;;;;-2.63;76.09;100673.75;102194;1296;74934;-25
2022/12/04 08:38:43;;;;;;;14.90;6.80;;;;;;;-2.78;76.05;100672.41;102193;1299;61431;-25
2022/12/04 08:41:11;;;;;;;22.70;9.90;;;;;;;-3.12;76.67;100661.86;102027;1297;61735;-25
2022/12/04 08:43:38;;;;;;;19.70;10.40;;;;;;;-3.38;77.36;100662.01;102079;1302;75819;-25
2022/12/04 08:46:08;;;;;;;11.10;6.40;;;;;;;-3.64;78.51;100658.73;102001;1296;75413;-25
2022/12/04 08:48:36;;;;;;;8.80;5.70;;;;;;;-3.28;78.48;100664.90;102203;1300;74171;-25
2022/12/04 08:51:03;;;;;;;12.60;7.00;;;;;;;-2.93;77.23;100665.27;102276;1302;61925;-25
2022/12/04 08:53:30;;;;;;;15.00;9.20;;;;;;;-3.03;76.79;100659.48;102325;1298;62511;-25
2022/12/04 08:55:59;;;;;;;10.50;6.10;;;;;;;-3.23;77.30;100656.26;102222;1301;75309;-25
2022/12/04 08:58:26;;;;;;;13.00;7.00;;;;;;;-3.43;77.68;100653.34;101996;1299;75528;-25
2022/12/04 09:00:53;;;;;;;16.20;9.60;;;;;;;-3.58;78.68;100654.33;102227;1298;74920;-25
2022/12/04 09:03:21;;;;;;;12.50;8.30;;;;;;;-3.24;78.29;100660.17;102330;1297;61793;-25
2022/12/04 09:05:59;;;;;;;15.80;8.90;;;;;;;-3.01;77.24;100660.17;102316;1293;61771;-25
2022/12/04 09:08:26;;;;;;;9.00;4.80;;;;;;;-3.13;76.99;100651.51;102170;1296;76193;-25
2022/12/04 09:10:54;;;;;;;26.30;12.10;;;;;;;-3.25;77.51;100651.33;102176;1300;76491;-25
2022/12/04 09:13:21;;;;;;;10.80;7.00;;;;;;;-3.40;77.99;100646.04;102339;1301;72912;-25
2022/12/04 09:15:48;;;;;;;14.30;8.40;;;;;;;-3.49;78.45;100651.11;102113;1299;62703;-25
2022/12/04 09:18:15;;;;;;;8.40;5.60;;;;;;;-3.02;77.88;100651.85;102015;1304;61622;-25
2022/12/04 09:20:42;;;;;;;9.00;6.00;;;;;;;-2.77;76.82;100646.41;102014;1299;76577;-25
2022/12/04 09:23:09;;;;;;;11.40;6.70;;;;;;;-2.83;76.26;100642.16;102108;1290;76763;-25
2022/12/04 09:25:36;;;;;;;12.30;7.60;;;;;;;-3.08;76.29;100644.37;102315;1302;71350;-25
2022/12/04 09:28:03;;;;;;;11.50;7.00;;;;;;;-3.32;77.02;100653.54;102297;1294;61856;-25
2022/12/04 09:30:30;;;;;;;6.80;4.50;;;;;;;-3.41;77.60;100648.92;102244;1299;61448;-25
2022/12/04 09:32:57;;;;;;;13.70;8.90;;;;;;;-3.07;77.91;100652.18;102331;1298;76539;-25
2022/12/04 09:35:24;;;;;;;11.70;5.20;;;;;;;-2.74;75.89;100641.13;102011;1300;76754;-25
2022/12/04 09:37:51;;;;;;;11.10;6.90;;;;;;;-2.75;75.31;100640.96;102293;1293;74390;-25
2022/12/04 09:40:25;;;;;;;13.10;7.20;;;;;;;-2.93;75.74;100636.20;102159;1301;61844;-25
2022/12/04 09:43:15;;;;;;;8.50;5.80;;;;;;;-3.18;76.24;100639.27;102171;1295;61520;-25
2022/12/04 09:45:45;;;;;;;7.70;4.80;;;;;;;-3.34;76.77;100639.94;102260;1294;75329;-25
2022/12/04 09:48:12;;;;;;;13.00;4.70;;;;;;;-3.07;76.87;100647.09;102077;1298;76073;-25
2022/12/04 09:50:41;;;;;;;11.50;5.20;;;;;;;-2.53;75.34;100641.95;102137;1302;74928;-25
2022/12/04 09:53:25;;;;;;;7.30;4.50;;;;;;;-2.36;74.17;100638.34;102168;1299;61168;-25
2022/12/04 09:56:07;;;;;;;14.40;6.30;;;;;;;-2.45;73.99;100642.28;102196;1302;62554;-25
2022/12/04 09:58:44;;;;;;;7.70;4.50;;;;;;;-2.64;74.52;100641.28;102090;1295;76211;-25
2022/12/04 10:01:23;;;;;;;11.10;6.60;;;;;;;-2.95;75.10;100646.40;102181;1299;76780;-25
2022/12/04 10:03:50;;;;;;;3.80;3.30;;;;;;;-3.14;75.98;100651.52;102169;1292;73597;-26
2022/12/04 10:06:28;;;;;;;12.90;7.00;;;;;;;-2.84;76.40;100650.98;102311;1301;61151;-26
2022/12/04 10:09:14;;;;;;;9.30;5.10;;;;;;;-2.29;74.58;100644.45;102083;1298;61882;-26
2022/12/04 10:11:41;;;;;;;6.10;3.70;;;;;;;-2.27;73.60;100634.56;102314;1302;75273;-26
2022/12/04 10:14:21;;;;;;;9.60;6.00;;;;;;;-2.37;73.79;100636.64;102373;1300;76763;-26
2022/12/04 10:16:55;;;;;;;6.50;3.60;;;;;;;-2.58;74.20;100637.35;102266;1302;75255;-25
2022/12/04 10:19:34;;;;;;;9.70;5.20;;;;;;;-2.77;74.77;100637.23;102193;1294;61134;-23
2022/12/04 10:22:40;;;;;;;15.10;8.00;;;;;;;-2.94;75.29;100637.23;102347;1297;61560;-23
2022/12/04 10:25:14;;;;;;;6.70;4.30;;;;;;;-2.89;75.83;100636.71;102089;1299;75545;-23
2022/12/04 10:27:48;;;;;;;10.00;6.10;;;;;;;-2.49;74.68;100633.44;102194;1299;76841;-23
2022/12/04 10:30:19;;;;;;;11.70;7.00;;;;;;;-2.54;74.30;100621.88;101958;1296;72721;-23
2022/12/04 10:32:47;;;;;;;10.20;5.20;;;;;;;-2.85;74.97;100626.52;102174;1294;62034;-23
2022/12/04 10:35:20;;;;;;;13.80;7.80;;;;;;;-3.11;75.80;100622.45;102119;1299;61534;-23
2022/12/04 10:37:52;;;;;;;8.50;5.20;;;;;;;-3.33;76.62;100619.21;102323;1285;76457;-23
2022/12/04 10:40:53;;;;;;;13.90;7.40;;;;;;;-3.31;77.28;100612.26;102204;1296;76763;-25
2022/12/04 10:43:35;;;;;;;9.50;6.20;;;;;;;-2.75;75.94;100606.61;102183;1304;74944;-25
2022/12/04 10:46:02;;;;;;;10.60;6.70;;;;;;;-2.65;74.91;100608.46;102095;1302;61595;-23
2022/12/04 10:48:35;;;;;;;8.60;5.80;;;;;;;-2.80;74.92;100605.09;102291;1299;61647;-23
2022/12/04 10:51:02;;;;;;;9.10;5.50;;;;;;;-3.01;75.86;100608.84;101973;1299;76341;-23
2022/12/04 10:53:34;;;;;;;6.20;4.50;;;;;;;-3.12;76.55;100614.48;102327;1295;75788;-23
2022/12/04 10:56:22;;;;;;;9.60;6.00;;;;;;;-3.22;76.82;100610.56;101940;1304;75779;-23
2022/12/04 10:59:00;;;;;;;7.80;5.50;;;;;;;-2.81;76.49;100595.05;102144;1302;61106;-23
2022/12/04 11:01:29;;;;;;;9.10;5.80;;;;;;;-2.50;75.01;100598.57;102066;1297;61583;-23
2022/12/04 11:04:02;;;;;;;10.20;5.50;;;;;;;-2.57;74.75;100593.65;102141;1295;76660;-23
2022/12/04 11:06:29;;;;;;;9.00;4.60;;;;;;;-2.84;74.81;100597.11;102060;1301;75795;-23
2022/12/04 11:08:56;;;;;;;8.90;5.20;;;;;;;-3.06;75.76;100596.96;102345;1299;73922;-23
2022/12/04 11:11:26;;;;;;;8.90;5.30;;;;;;;-3.29;76.56;100591.88;102143;1301;62281;-23
2022/12/04 11:14:12;;;;;;;5.50;3.60;;;;;;;-3.34;77.01;100587.95;102032;1301;63090;-23
2022/12/04 11:16:43;;;;;;;14.10;6.20;;;;;;;-2.83;76.31;100587.42;102151;1299;76394;-23
2022/12/04 11:19:18;;;;;;;5.90;4.00;;;;;;;-2.72;75.36;100580.95;102150;1299;76897;-23
2022/12/04 11:21:45;;;;;;;7.90;5.20;;;;;;;-2.88;75.43;100581.64;102130;1295;75459;-23
2022/12/04 11:24:22;;;;;;;6.10;4.70;;;;;;;-3.10;76.08;100578.45;102289;1283;61106;-23
2022/12/04 11:26:49;;;;;;;7.90;5.20;;;;;;;-3.29;77.02;100580.98;102191;1300;61778;-24
2022/12/04 11:29:17;;;;;;;6.40;4.40;;;;;;;-3.42;77.64;100583.88;102100;1299;76356;-24
2022/12/04 11:31:51;;;;;;;6.00;4.70;;;;;;;-3.14;77.77;100578.61;102084;1302;76667;-24
2022/12/04 11:34:24;;;;;;;13.90;8.40;;;;;;;-2.73;76.29;100581.79;102115;1294;74798;-23
2022/12/04 11:36:53;;;;;;;11.50;4.40;;;;;;;-2.79;75.85;100574.84;102090;1298;61829;-24
2022/12/04 11:39:26;;;;;;;6.30;4.40;;;;;;;-3.02;76.46;100575.20;102077;1301;62872;-24
2022/12/04 11:42:18;;;;;;;8.90;5.90;;;;;;;-3.25;77.07;100583.03;102327;1302;74896;-24
2022/12/04 11:44:52;;;;;;;10.90;6.50;;;;;;;-3.43;77.63;100584.05;102214;1298;76487;-24
2022/12/04 11:47:21;;;;;;;14.30;5.80;;;;;;;-3.38;78.17;100579.80;102093;1302;75353;-23
2022/12/04 11:50:12;;;;;;;5.80;4.60;;;;;;;-2.95;77.37;100573.66;102206;1302;61105;-24
2022/12/04 11:52:50;;;;;;;9.60;5.90;;;;;;;-2.84;76.58;100575.36;102047;1300;62792;-23
2022/12/04 11:55:47;;;;;;;8.00;5.70;;;;;;;-3.08;76.57;100575.88;102162;1305;75346;-23